Aviation Digital Data Service (ADDS)

Output produced by METARs form (2201 UTC 25 October 2014)
found at http://www.aviationweather.gov/adds/metars/
 
KDEN 252100Z 2521/2624 11010KT P6SM SKC 
     FM260300 15008KT P6SM SKC 
     FM260500 20010KT P6SM FEW140 SCT250 
     FM261500 21012KT P6SM FEW120 SCT200 
     FM262000 30012KT P6SM SCT080 BKN150